sensor_id;sensor_type;location;lat;lon;timestamp;P1;durP1;ratioP1;P2;durP2;ratioP2
75689;SDS011;64303;53.118;9.044;2022-10-15T00:01:07;28.27;;;17.42;;
75689;SDS011;64303;53.118;9.044;2022-10-15T00:03:35;34.80;;;19.67;;
75689;SDS011;64303;53.118;9.044;2022-10-15T00:06:05;30.25;;;17.20;;
75689;SDS011;64303;53.118;9.044;2022-10-15T00:08:33;29.50;;;17.33;;
75689;SDS011;64303;53.118;9.044;2022-10-15T00:11:04;31.85;;;17.58;;
75689;SDS011;64303;53.118;9.044;2022-10-15T00:13:33;35.65;;;19.77;;
75689;SDS011;64303;53.118;9.044;2022-10-15T00:15:59;32.80;;;18.95;;
75689;SDS011;64303;53.118;9.044;2022-10-15T00:18:26;37.05;;;19.67;;
75689;SDS011;64303;53.118;9.044;2022-10-15T00:20:52;37.95;;;18.90;;
75689;SDS011;64303;53.118;9.044;2022-10-15T00:23:19;40.30;;;20.67;;
75689;SDS011;64303;53.118;9.044;2022-10-15T00:25:47;38.92;;;20.50;;
75689;SDS011;64303;53.118;9.044;2022-10-15T00:28:13;35.08;;;19.48;;
75689;SDS011;64303;53.118;9.044;2022-10-15T00:30:39;38.30;;;21.58;;
75689;SDS011;64303;53.118;9.044;2022-10-15T00:33:06;39.03;;;20.83;;
75689;SDS011;64303;53.118;9.044;2022-10-15T00:35:32;38.97;;;22.77;;
75689;SDS011;64303;53.118;9.044;2022-10-15T00:37:58;39.63;;;21.52;;
75689;SDS011;64303;53.118;9.044;2022-10-15T00:40:25;40.05;;;23.10;;
75689;SDS011;64303;53.118;9.044;2022-10-15T00:42:52;39.47;;;19.70;;
75689;SDS011;64303;53.118;9.044;2022-10-15T00:45:19;40.78;;;20.67;;
75689;SDS011;64303;53.118;9.044;2022-10-15T00:47:46;39.47;;;21.20;;
75689;SDS011;64303;53.118;9.044;2022-10-15T00:50:14;41.28;;;23.27;;
75689;SDS011;64303;53.118;9.044;2022-10-15T00:52:43;34.00;;;17.73;;
75689;SDS011;64303;53.118;9.044;2022-10-15T00:55:12;38.88;;;19.65;;
75689;SDS011;64303;53.118;9.044;2022-10-15T00:57:40;33.50;;;18.95;;
75689;SDS011;64303;53.118;9.044;2022-10-15T01:00:11;35.55;;;18.27;;
75689;SDS011;64303;53.118;9.044;2022-10-15T01:02:42;35.90;;;17.80;;
75689;SDS011;64303;53.118;9.044;2022-10-15T01:05:08;35.30;;;21.58;;
75689;SDS011;64303;53.118;9.044;2022-10-15T01:07:36;36.03;;;20.13;;
75689;SDS011;64303;53.118;9.044;2022-10-15T01:10:02;33.42;;;18.52;;
75689;SDS011;64303;53.118;9.044;2022-10-15T01:12:34;35.78;;;15.60;;
75689;SDS011;64303;53.118;9.044;2022-10-15T01:15:06;44.33;;;23.63;;
75689;SDS011;64303;53.118;9.044;2022-10-15T01:17:39;40.08;;;16.77;;
75689;SDS011;64303;53.118;9.044;2022-10-15T01:20:26;32.92;;;16.05;;
75689;SDS011;64303;53.118;9.044;2022-10-15T01:23:09;45.63;;;21.38;;
75689;SDS011;64303;53.118;9.044;2022-10-15T01:25:46;53.38;;;21.55;;
75689;SDS011;64303;53.118;9.044;2022-10-15T01:28:17;51.20;;;25.08;;
75689;SDS011;64303;53.118;9.044;2022-10-15T01:30:52;53.00;;;22.88;;
75689;SDS011;64303;53.118;9.044;2022-10-15T01:33:28;48.55;;;22.45;;
75689;SDS011;64303;53.118;9.044;2022-10-15T01:36:01;49.58;;;22.73;;
75689;SDS011;64303;53.118;9.044;2022-10-15T01:38:35;47.90;;;21.15;;
75689;SDS011;64303;53.118;9.044;2022-10-15T01:41:09;48.30;;;23.67;;
75689;SDS011;64303;53.118;9.044;2022-10-15T01:43:37;61.20;;;22.70;;
75689;SDS011;64303;53.118;9.044;2022-10-15T01:46:09;51.05;;;24.85;;
75689;SDS011;64303;53.118;9.044;2022-10-15T01:48:39;50.75;;;21.80;;
75689;SDS011;64303;53.118;9.044;2022-10-15T01:51:05;46.15;;;20.40;;
75689;SDS011;64303;53.118;9.044;2022-10-15T01:53:32;47.85;;;22.60;;
75689;SDS011;64303;53.118;9.044;2022-10-15T01:56:00;51.10;;;24.95;;
75689;SDS011;64303;53.118;9.044;2022-10-15T01:58:28;51.10;;;23.85;;
75689;SDS011;64303;53.118;9.044;2022-10-15T02:00:56;50.58;;;25.65;;
75689;SDS011;64303;53.118;9.044;2022-10-15T02:03:24;50.88;;;26.08;;
75689;SDS011;64303;53.118;9.044;2022-10-15T02:05:52;46.08;;;22.27;;
75689;SDS011;64303;53.118;9.044;2022-10-15T02:08:24;49.58;;;25.13;;
75689;SDS011;64303;53.118;9.044;2022-10-15T02:10:54;50.22;;;22.60;;
75689;SDS011;64303;53.118;9.044;2022-10-15T02:13:26;49.90;;;23.35;;
75689;SDS011;64303;53.118;9.044;2022-10-15T02:16:00;47.05;;;25.00;;
75689;SDS011;64303;53.118;9.044;2022-10-15T02:18:32;51.65;;;25.70;;
75689;SDS011;64303;53.118;9.044;2022-10-15T02:21:04;50.08;;;24.80;;
75689;SDS011;64303;53.118;9.044;2022-10-15T02:23:35;44.75;;;22.70;;
75689;SDS011;64303;53.118;9.044;2022-10-15T02:26:05;52.05;;;26.23;;
75689;SDS011;64303;53.118;9.044;2022-10-15T02:28:33;53.05;;;24.50;;
75689;SDS011;64303;53.118;9.044;2022-10-15T02:31:00;48.50;;;23.73;;
75689;SDS011;64303;53.118;9.044;2022-10-15T02:33:27;54.08;;;25.90;;
75689;SDS011;64303;53.118;9.044;2022-10-15T02:35:56;49.88;;;23.92;;
75689;SDS011;64303;53.118;9.044;2022-10-15T02:38:23;49.22;;;24.50;;
75689;SDS011;64303;53.118;9.044;2022-10-15T02:40:51;56.13;;;24.42;;
75689;SDS011;64303;53.118;9.044;2022-10-15T02:43:18;60.45;;;23.50;;
75689;SDS011;64303;53.118;9.044;2022-10-15T02:45:46;57.97;;;25.67;;
75689;SDS011;64303;53.118;9.044;2022-10-15T02:48:12;58.10;;;24.45;;
75689;SDS011;64303;53.118;9.044;2022-10-15T02:50:38;55.30;;;25.33;;
75689;SDS011;64303;53.118;9.044;2022-10-15T02:53:06;51.65;;;25.40;;
75689;SDS011;64303;53.118;9.044;2022-10-15T02:55:33;58.20;;;25.73;;
75689;SDS011;64303;53.118;9.044;2022-10-15T02:57:59;59.95;;;25.55;;
75689;SDS011;64303;53.118;9.044;2022-10-15T03:00:25;50.50;;;21.90;;
75689;SDS011;64303;53.118;9.044;2022-10-15T03:02:52;56.28;;;25.55;;
75689;SDS011;64303;53.118;9.044;2022-10-15T03:05:18;60.47;;;25.67;;
75689;SDS011;64303;53.118;9.044;2022-10-15T03:07:44;60.13;;;26.35;;
75689;SDS011;64303;53.118;9.044;2022-10-15T03:10:12;57.35;;;24.13;;
75689;SDS011;64303;53.118;9.044;2022-10-15T03:12:38;56.28;;;25.38;;
75689;SDS011;64303;53.118;9.044;2022-10-15T03:15:05;61.40;;;26.02;;
75689;SDS011;64303;53.118;9.044;2022-10-15T03:17:32;52.25;;;22.00;;
75689;SDS011;64303;53.118;9.044;2022-10-15T03:19:59;49.03;;;22.42;;
75689;SDS011;64303;53.118;9.044;2022-10-15T03:22:25;48.90;;;24.40;;
75689;SDS011;64303;53.118;9.044;2022-10-15T03:24:51;49.08;;;22.70;;
75689;SDS011;64303;53.118;9.044;2022-10-15T03:27:19;48.20;;;21.88;;
75689;SDS011;64303;53.118;9.044;2022-10-15T03:29:45;57.13;;;22.85;;
75689;SDS011;64303;53.118;9.044;2022-10-15T03:32:12;54.95;;;22.52;;
75689;SDS011;64303;53.118;9.044;2022-10-15T03:34:38;53.50;;;24.38;;
75689;SDS011;64303;53.118;9.044;2022-10-15T03:37:04;49.58;;;27.80;;
75689;SDS011;64303;53.118;9.044;2022-10-15T03:39:31;47.70;;;22.42;;
75689;SDS011;64303;53.118;9.044;2022-10-15T03:41:57;49.90;;;23.17;;
75689;SDS011;64303;53.118;9.044;2022-10-15T03:44:25;54.25;;;24.25;;
75689;SDS011;64303;53.118;9.044;2022-10-15T03:46:51;46.70;;;23.63;;
75689;SDS011;64303;53.118;9.044;2022-10-15T03:49:18;50.47;;;20.58;;
75689;SDS011;64303;53.118;9.044;2022-10-15T03:51:44;48.58;;;24.27;;
75689;SDS011;64303;53.118;9.044;2022-10-15T03:54:10;48.53;;;21.67;;
75689;SDS011;64303;53.118;9.044;2022-10-15T03:56:37;42.20;;;20.35;;
75689;SDS011;64303;53.118;9.044;2022-10-15T03:59:03;47.38;;;21.75;;
75689;SDS011;64303;53.118;9.044;2022-10-15T04:01:31;51.95;;;21.73;;
75689;SDS011;64303;53.118;9.044;2022-10-15T04:03:58;51.35;;;26.05;;
75689;SDS011;64303;53.118;9.044;2022-10-15T04:06:24;55.03;;;24.63;;
75689;SDS011;64303;53.118;9.044;2022-10-15T04:08:50;49.22;;;23.75;;
75689;SDS011;64303;53.118;9.044;2022-10-15T04:11:17;48.13;;;23.55;;
75689;SDS011;64303;53.118;9.044;2022-10-15T04:13:46;54.08;;;24.10;;
75689;SDS011;64303;53.118;9.044;2022-10-15T04:16:13;51.17;;;24.20;;
75689;SDS011;64303;53.118;9.044;2022-10-15T04:18:41;52.10;;;23.33;;
75689;SDS011;64303;53.118;9.044;2022-10-15T04:21:07;48.88;;;24.30;;
75689;SDS011;64303;53.118;9.044;2022-10-15T04:23:34;44.72;;;21.88;;
75689;SDS011;64303;53.118;9.044;2022-10-15T04:26:00;47.03;;;21.48;;
75689;SDS011;64303;53.118;9.044;2022-10-15T04:28:27;41.22;;;18.95;;
75689;SDS011;64303;53.118;9.044;2022-10-15T04:30:54;45.92;;;21.88;;
75689;SDS011;64303;53.118;9.044;2022-10-15T04:35:57;49.08;;;24.65;;
75689;SDS011;64303;53.118;9.044;2022-10-15T04:38:24;49.92;;;20.40;;
75689;SDS011;64303;53.118;9.044;2022-10-15T04:40:56;45.70;;;21.83;;
75689;SDS011;64303;53.118;9.044;2022-10-15T04:43:23;45.17;;;23.63;;
75689;SDS011;64303;53.118;9.044;2022-10-15T04:45:50;51.42;;;25.45;;
75689;SDS011;64303;53.118;9.044;2022-10-15T04:48:16;49.90;;;22.65;;
75689;SDS011;64303;53.118;9.044;2022-10-15T04:50:42;57.38;;;23.60;;
75689;SDS011;64303;53.118;9.044;2022-10-15T04:53:10;47.45;;;20.50;;
75689;SDS011;64303;53.118;9.044;2022-10-15T04:55:36;47.60;;;21.77;;
75689;SDS011;64303;53.118;9.044;2022-10-15T04:58:03;46.92;;;22.05;;
75689;SDS011;64303;53.118;9.044;2022-10-15T05:00:29;47.13;;;22.08;;
75689;SDS011;64303;53.118;9.044;2022-10-15T05:02:55;42.35;;;20.42;;
75689;SDS011;64303;53.118;9.044;2022-10-15T05:05:22;56.00;;;25.27;;
75689;SDS011;64303;53.118;9.044;2022-10-15T05:07:49;45.70;;;23.20;;
75689;SDS011;64303;53.118;9.044;2022-10-15T05:10:16;51.75;;;22.55;;
75689;SDS011;64303;53.118;9.044;2022-10-15T05:12:43;52.28;;;21.73;;
75689;SDS011;64303;53.118;9.044;2022-10-15T05:15:09;54.60;;;27.02;;
75689;SDS011;64303;53.118;9.044;2022-10-15T05:17:36;52.53;;;20.48;;
75689;SDS011;64303;53.118;9.044;2022-10-15T05:20:02;49.40;;;21.90;;
75689;SDS011;64303;53.118;9.044;2022-10-15T05:22:29;53.38;;;22.83;;
75689;SDS011;64303;53.118;9.044;2022-10-15T05:24:55;48.15;;;20.00;;
75689;SDS011;64303;53.118;9.044;2022-10-15T05:27:23;53.97;;;21.48;;
75689;SDS011;64303;53.118;9.044;2022-10-15T05:29:49;57.25;;;22.67;;
75689;SDS011;64303;53.118;9.044;2022-10-15T05:32:16;50.30;;;23.90;;
75689;SDS011;64303;53.118;9.044;2022-10-15T05:34:42;48.67;;;21.33;;
75689;SDS011;64303;53.118;9.044;2022-10-15T05:37:08;59.97;;;25.58;;
75689;SDS011;64303;53.118;9.044;2022-10-15T05:39:35;57.40;;;23.02;;
75689;SDS011;64303;53.118;9.044;2022-10-15T05:42:01;55.00;;;24.75;;
75689;SDS011;64303;53.118;9.044;2022-10-15T05:44:29;52.38;;;23.70;;
75689;SDS011;64303;53.118;9.044;2022-10-15T05:46:55;50.30;;;20.85;;
75689;SDS011;64303;53.118;9.044;2022-10-15T05:49:21;53.45;;;21.40;;
75689;SDS011;64303;53.118;9.044;2022-10-15T05:51:48;53.92;;;22.45;;
75689;SDS011;64303;53.118;9.044;2022-10-15T05:54:14;51.85;;;22.65;;
75689;SDS011;64303;53.118;9.044;2022-10-15T05:56:41;53.38;;;20.80;;
75689;SDS011;64303;53.118;9.044;2022-10-15T05:59:07;55.60;;;22.52;;
75689;SDS011;64303;53.118;9.044;2022-10-15T06:01:35;61.38;;;24.20;;
75689;SDS011;64303;53.118;9.044;2022-10-15T06:04:01;57.85;;;23.90;;
75689;SDS011;64303;53.118;9.044;2022-10-15T06:06:28;55.78;;;24.70;;
75689;SDS011;64303;53.118;9.044;2022-10-15T06:08:54;56.25;;;24.20;;
75689;SDS011;64303;53.118;9.044;2022-10-15T06:11:21;54.25;;;23.60;;
75689;SDS011;64303;53.118;9.044;2022-10-15T06:13:47;58.72;;;25.20;;
75689;SDS011;64303;53.118;9.044;2022-10-15T06:16:14;60.00;;;26.27;;
75689;SDS011;64303;53.118;9.044;2022-10-15T06:18:43;56.28;;;21.35;;
75689;SDS011;64303;53.118;9.044;2022-10-15T06:21:10;58.45;;;25.95;;
75689;SDS011;64303;53.118;9.044;2022-10-15T06:23:37;58.28;;;23.77;;
75689;SDS011;64303;53.118;9.044;2022-10-15T06:26:04;60.88;;;26.33;;
75689;SDS011;64303;53.118;9.044;2022-10-15T06:28:32;55.20;;;24.38;;
75689;SDS011;64303;53.118;9.044;2022-10-15T06:30:59;49.92;;;23.02;;
75689;SDS011;64303;53.118;9.044;2022-10-15T06:33:26;54.75;;;22.52;;
75689;SDS011;64303;53.118;9.044;2022-10-15T06:35:54;58.38;;;23.58;;
75689;SDS011;64303;53.118;9.044;2022-10-15T06:38:21;61.22;;;22.67;;
75689;SDS011;64303;53.118;9.044;2022-10-15T06:40:47;61.55;;;26.98;;
75689;SDS011;64303;53.118;9.044;2022-10-15T06:43:14;59.58;;;22.15;;
75689;SDS011;64303;53.118;9.044;2022-10-15T06:48:03;69.03;;;34.83;;
75689;SDS011;64303;53.118;9.044;2022-10-15T06:50:32;56.28;;;25.70;;
75689;SDS011;64303;53.118;9.044;2022-10-15T06:52:59;57.78;;;25.98;;
75689;SDS011;64303;53.118;9.044;2022-10-15T06:55:26;58.63;;;22.98;;
75689;SDS011;64303;53.118;9.044;2022-10-15T06:57:54;59.88;;;26.77;;
75689;SDS011;64303;53.118;9.044;2022-10-15T07:00:21;55.35;;;24.63;;
75689;SDS011;64303;53.118;9.044;2022-10-15T07:02:48;62.28;;;25.20;;
75689;SDS011;64303;53.118;9.044;2022-10-15T07:05:16;59.78;;;28.38;;
75689;SDS011;64303;53.118;9.044;2022-10-15T07:07:49;58.00;;;23.40;;
75689;SDS011;64303;53.118;9.044;2022-10-15T07:10:18;63.08;;;25.35;;
75689;SDS011;64303;53.118;9.044;2022-10-15T07:12:45;56.47;;;22.40;;
75689;SDS011;64303;53.118;9.044;2022-10-15T07:15:11;56.08;;;25.30;;
75689;SDS011;64303;53.118;9.044;2022-10-15T07:17:38;52.13;;;22.92;;
75689;SDS011;64303;53.118;9.044;2022-10-15T07:20:05;53.15;;;24.73;;
75689;SDS011;64303;53.118;9.044;2022-10-15T07:25:00;49.08;;;23.63;;
75689;SDS011;64303;53.118;9.044;2022-10-15T07:27:26;50.50;;;24.33;;
75689;SDS011;64303;53.118;9.044;2022-10-15T07:29:53;49.40;;;24.95;;
75689;SDS011;64303;53.118;9.044;2022-10-15T07:32:19;46.25;;;19.27;;
75689;SDS011;64303;53.118;9.044;2022-10-15T07:34:46;48.63;;;21.85;;
75689;SDS011;64303;53.118;9.044;2022-10-15T07:37:12;47.88;;;25.20;;
75689;SDS011;64303;53.118;9.044;2022-10-15T07:39:40;49.88;;;22.10;;
75689;SDS011;64303;53.118;9.044;2022-10-15T07:42:06;51.20;;;23.33;;
75689;SDS011;64303;53.118;9.044;2022-10-15T07:44:33;46.60;;;21.05;;
75689;SDS011;64303;53.118;9.044;2022-10-15T07:46:59;45.40;;;24.50;;
75689;SDS011;64303;53.118;9.044;2022-10-15T07:49:26;41.53;;;21.50;;
75689;SDS011;64303;53.118;9.044;2022-10-15T07:51:52;45.22;;;21.42;;
75689;SDS011;64303;53.118;9.044;2022-10-15T07:54:19;45.38;;;21.40;;
75689;SDS011;64303;53.118;9.044;2022-10-15T07:56:47;46.58;;;22.90;;
75689;SDS011;64303;53.118;9.044;2022-10-15T07:59:14;45.00;;;21.65;;
75689;SDS011;64303;53.118;9.044;2022-10-15T08:01:40;41.00;;;20.85;;
75689;SDS011;64303;53.118;9.044;2022-10-15T08:04:07;45.70;;;21.48;;
75689;SDS011;64303;53.118;9.044;2022-10-15T08:06:36;41.53;;;21.40;;
75689;SDS011;64303;53.118;9.044;2022-10-15T08:09:03;41.15;;;23.63;;
75689;SDS011;64303;53.118;9.044;2022-10-15T08:11:29;42.13;;;21.27;;
75689;SDS011;64303;53.118;9.044;2022-10-15T08:13:57;41.88;;;21.65;;
75689;SDS011;64303;53.118;9.044;2022-10-15T08:16:24;43.20;;;21.63;;
75689;SDS011;64303;53.118;9.044;2022-10-15T08:18:56;41.33;;;21.75;;
75689;SDS011;64303;53.118;9.044;2022-10-15T08:21:22;49.33;;;24.20;;
75689;SDS011;64303;53.118;9.044;2022-10-15T08:23:49;40.88;;;21.80;;
75689;SDS011;64303;53.118;9.044;2022-10-15T08:26:16;40.95;;;21.80;;
75689;SDS011;64303;53.118;9.044;2022-10-15T08:28:42;43.90;;;23.17;;
75689;SDS011;64303;53.118;9.044;2022-10-15T08:31:10;42.70;;;20.45;;
75689;SDS011;64303;53.118;9.044;2022-10-15T08:33:37;42.20;;;22.63;;
75689;SDS011;64303;53.118;9.044;2022-10-15T08:36:04;42.08;;;22.38;;
75689;SDS011;64303;53.118;9.044;2022-10-15T08:38:31;38.33;;;20.75;;
75689;SDS011;64303;53.118;9.044;2022-10-15T08:40:59;42.45;;;22.48;;
75689;SDS011;64303;53.118;9.044;2022-10-15T08:45:55;35.50;;;18.33;;
75689;SDS011;64303;53.118;9.044;2022-10-15T08:48:27;33.28;;;18.58;;
75689;SDS011;64303;53.118;9.044;2022-10-15T08:50:58;37.60;;;19.33;;
75689;SDS011;64303;53.118;9.044;2022-10-15T08:53:27;33.10;;;17.15;;
75689;SDS011;64303;53.118;9.044;2022-10-15T08:55:54;29.83;;;17.65;;
75689;SDS011;64303;53.118;9.044;2022-10-15T08:58:24;31.38;;;17.95;;
75689;SDS011;64303;53.118;9.044;2022-10-15T09:00:55;30.67;;;16.38;;
75689;SDS011;64303;53.118;9.044;2022-10-15T09:03:26;31.35;;;16.70;;
75689;SDS011;64303;53.118;9.044;2022-10-15T09:06:02;28.90;;;15.68;;
75689;SDS011;64303;53.118;9.044;2022-10-15T09:08:34;30.70;;;15.70;;
75689;SDS011;64303;53.118;9.044;2022-10-15T09:11:06;29.60;;;17.83;;
75689;SDS011;64303;53.118;9.044;2022-10-15T09:13:38;29.60;;;16.00;;
75689;SDS011;64303;53.118;9.044;2022-10-15T09:16:09;31.83;;;18.33;;
75689;SDS011;64303;53.118;9.044;2022-10-15T09:18:40;33.05;;;17.15;;
75689;SDS011;64303;53.118;9.044;2022-10-15T09:21:07;40.50;;;19.63;;
75689;SDS011;64303;53.118;9.044;2022-10-15T09:23:35;33.55;;;17.90;;
75689;SDS011;64303;53.118;9.044;2022-10-15T09:26:05;37.58;;;16.58;;
75689;SDS011;64303;53.118;9.044;2022-10-15T09:28:37;34.28;;;17.88;;
75689;SDS011;64303;53.118;9.044;2022-10-15T09:31:04;37.40;;;18.25;;
75689;SDS011;64303;53.118;9.044;2022-10-15T09:33:34;33.60;;;15.40;;
75689;SDS011;64303;53.118;9.044;2022-10-15T09:36:07;34.03;;;17.42;;
75689;SDS011;64303;53.118;9.044;2022-10-15T09:38:41;37.53;;;18.63;;
75689;SDS011;64303;53.118;9.044;2022-10-15T09:41:12;35.65;;;18.00;;
75689;SDS011;64303;53.118;9.044;2022-10-15T09:43:45;42.38;;;19.38;;
75689;SDS011;64303;53.118;9.044;2022-10-15T09:46:14;38.78;;;19.60;;
75689;SDS011;64303;53.118;9.044;2022-10-15T09:48:42;39.65;;;17.83;;
75689;SDS011;64303;53.118;9.044;2022-10-15T09:51:14;33.35;;;17.27;;
75689;SDS011;64303;53.118;9.044;2022-10-15T09:53:47;37.40;;;18.73;;
75689;SDS011;64303;53.118;9.044;2022-10-15T09:56:18;36.15;;;18.65;;
75689;SDS011;64303;53.118;9.044;2022-10-15T09:58:48;29.73;;;15.88;;
75689;SDS011;64303;53.118;9.044;2022-10-15T10:01:17;36.75;;;20.08;;
75689;SDS011;64303;53.118;9.044;2022-10-15T10:03:45;32.17;;;17.20;;
75689;SDS011;64303;53.118;9.044;2022-10-15T10:06:18;36.30;;;18.58;;
75689;SDS011;64303;53.118;9.044;2022-10-15T10:08:47;30.35;;;17.55;;
75689;SDS011;64303;53.118;9.044;2022-10-15T10:11:16;32.85;;;18.48;;
75689;SDS011;64303;53.118;9.044;2022-10-15T10:13:44;32.88;;;17.30;;
75689;SDS011;64303;53.118;9.044;2022-10-15T10:16:16;32.55;;;17.77;;
75689;SDS011;64303;53.118;9.044;2022-10-15T10:18:43;36.20;;;17.77;;
75689;SDS011;64303;53.118;9.044;2022-10-15T10:21:22;29.52;;;19.73;;
75689;SDS011;64303;53.118;9.044;2022-10-15T10:23:50;32.63;;;19.27;;
75689;SDS011;64303;53.118;9.044;2022-10-15T10:26:17;32.25;;;16.80;;
75689;SDS011;64303;53.118;9.044;2022-10-15T10:28:45;24.98;;;14.90;;
75689;SDS011;64303;53.118;9.044;2022-10-15T10:31:14;19.23;;;12.00;;
75689;SDS011;64303;53.118;9.044;2022-10-15T10:33:42;21.52;;;12.75;;
75689;SDS011;64303;53.118;9.044;2022-10-15T10:36:18;22.27;;;14.13;;
75689;SDS011;64303;53.118;9.044;2022-10-15T10:38:55;19.48;;;13.32;;
75689;SDS011;64303;53.118;9.044;2022-10-15T10:41:23;22.98;;;13.75;;
75689;SDS011;64303;53.118;9.044;2022-10-15T10:44:18;26.48;;;13.60;;
75689;SDS011;64303;53.118;9.044;2022-10-15T10:46:54;21.55;;;13.85;;
75689;SDS011;64303;53.118;9.044;2022-10-15T10:49:29;23.17;;;13.35;;
75689;SDS011;64303;53.118;9.044;2022-10-15T10:51:58;23.45;;;14.85;;
75689;SDS011;64303;53.118;9.044;2022-10-15T10:54:24;27.52;;;16.85;;
75689;SDS011;64303;53.118;9.044;2022-10-15T10:56:52;23.15;;;15.07;;
75689;SDS011;64303;53.118;9.044;2022-10-15T10:59:22;24.60;;;16.30;;
75689;SDS011;64303;53.118;9.044;2022-10-15T11:01:50;28.15;;;16.27;;
75689;SDS011;64303;53.118;9.044;2022-10-15T11:04:18;26.33;;;16.45;;
75689;SDS011;64303;53.118;9.044;2022-10-15T11:06:55;25.10;;;15.60;;
75689;SDS011;64303;53.118;9.044;2022-10-15T11:09:34;26.08;;;15.88;;
75689;SDS011;64303;53.118;9.044;2022-10-15T11:12:13;24.35;;;15.90;;
75689;SDS011;64303;53.118;9.044;2022-10-15T11:14:51;24.63;;;15.82;;
75689;SDS011;64303;53.118;9.044;2022-10-15T11:17:22;24.98;;;16.88;;
75689;SDS011;64303;53.118;9.044;2022-10-15T11:19:54;30.42;;;16.75;;
75689;SDS011;64303;53.118;9.044;2022-10-15T11:22:34;33.65;;;19.25;;
75689;SDS011;64303;53.118;9.044;2022-10-15T11:25:12;30.30;;;16.98;;
75689;SDS011;64303;53.118;9.044;2022-10-15T11:27:50;31.30;;;19.67;;
75689;SDS011;64303;53.118;9.044;2022-10-15T11:30:26;36.70;;;19.67;;
75689;SDS011;64303;53.118;9.044;2022-10-15T11:32:59;30.30;;;19.00;;
75689;SDS011;64303;53.118;9.044;2022-10-15T11:35:34;32.28;;;19.25;;
75689;SDS011;64303;53.118;9.044;2022-10-15T11:38:10;27.55;;;17.60;;
75689;SDS011;64303;53.118;9.044;2022-10-15T11:40:44;29.60;;;18.30;;
75689;SDS011;64303;53.118;9.044;2022-10-15T11:43:17;28.65;;;19.58;;
75689;SDS011;64303;53.118;9.044;2022-10-15T11:45:57;28.63;;;18.48;;
75689;SDS011;64303;53.118;9.044;2022-10-15T11:48:29;33.13;;;21.67;;
75689;SDS011;64303;53.118;9.044;2022-10-15T11:51:03;32.25;;;19.20;;
75689;SDS011;64303;53.118;9.044;2022-10-15T11:53:42;32.58;;;20.05;;
75689;SDS011;64303;53.118;9.044;2022-10-15T11:56:19;31.38;;;17.92;;
75689;SDS011;64303;53.118;9.044;2022-10-15T11:58:52;30.85;;;18.70;;
75689;SDS011;64303;53.118;9.044;2022-10-15T12:01:23;28.13;;;17.08;;
75689;SDS011;64303;53.118;9.044;2022-10-15T12:04:00;27.73;;;16.67;;
75689;SDS011;64303;53.118;9.044;2022-10-15T12:06:29;25.55;;;16.75;;
75689;SDS011;64303;53.118;9.044;2022-10-15T12:08:58;32.88;;;20.27;;
75689;SDS011;64303;53.118;9.044;2022-10-15T12:11:28;28.02;;;17.55;;
75689;SDS011;64303;53.118;9.044;2022-10-15T12:14:06;28.35;;;19.27;;
75689;SDS011;64303;53.118;9.044;2022-10-15T12:16:44;28.65;;;15.90;;
75689;SDS011;64303;53.118;9.044;2022-10-15T12:19:19;26.13;;;16.63;;
75689;SDS011;64303;53.118;9.044;2022-10-15T12:22:00;23.27;;;15.80;;
75689;SDS011;64303;53.118;9.044;2022-10-15T12:24:49;20.17;;;10.35;;
75689;SDS011;64303;53.118;9.044;2022-10-15T12:27:20;15.98;;;10.50;;
75689;SDS011;64303;53.118;9.044;2022-10-15T12:29:50;13.48;;;8.45;;
75689;SDS011;64303;53.118;9.044;2022-10-15T12:32:19;18.08;;;11.25;;
75689;SDS011;64303;53.118;9.044;2022-10-15T12:34:48;14.85;;;11.07;;
75689;SDS011;64303;53.118;9.044;2022-10-15T12:37:19;15.52;;;10.77;;
75689;SDS011;64303;53.118;9.044;2022-10-15T12:39:52;16.75;;;10.25;;
75689;SDS011;64303;53.118;9.044;2022-10-15T12:42:24;18.35;;;13.23;;
75689;SDS011;64303;53.118;9.044;2022-10-15T12:44:53;16.92;;;10.80;;
75689;SDS011;64303;53.118;9.044;2022-10-15T12:50:15;15.02;;;9.77;;
75689;SDS011;64303;53.118;9.044;2022-10-15T12:52:51;14.48;;;9.18;;
75689;SDS011;64303;53.118;9.044;2022-10-15T12:55:27;19.00;;;12.80;;
75689;SDS011;64303;53.118;9.044;2022-10-15T12:57:58;16.38;;;11.25;;
75689;SDS011;64303;53.118;9.044;2022-10-15T13:00:37;16.02;;;10.57;;
75689;SDS011;64303;53.118;9.044;2022-10-15T13:03:15;20.05;;;12.75;;
75689;SDS011;64303;53.118;9.044;2022-10-15T13:05:46;18.17;;;12.20;;
75689;SDS011;64303;53.118;9.044;2022-10-15T13:08:14;17.88;;;11.93;;
75689;SDS011;64303;53.118;9.044;2022-10-15T13:10:46;17.00;;;11.52;;
75689;SDS011;64303;53.118;9.044;2022-10-15T13:13:14;18.55;;;12.82;;
75689;SDS011;64303;53.118;9.044;2022-10-15T13:15:44;20.38;;;13.07;;
75689;SDS011;64303;53.118;9.044;2022-10-15T13:18:15;20.90;;;13.13;;
75689;SDS011;64303;53.118;9.044;2022-10-15T13:20:43;18.98;;;11.18;;
75689;SDS011;64303;53.118;9.044;2022-10-15T13:23:16;21.92;;;14.55;;
75689;SDS011;64303;53.118;9.044;2022-10-15T13:25:45;26.83;;;16.40;;
75689;SDS011;64303;53.118;9.044;2022-10-15T13:28:28;22.33;;;15.13;;
75689;SDS011;64303;53.118;9.044;2022-10-15T13:30:57;23.17;;;14.68;;
75689;SDS011;64303;53.118;9.044;2022-10-15T13:33:24;20.15;;;14.23;;
75689;SDS011;64303;53.118;9.044;2022-10-15T13:35:53;23.20;;;14.45;;
75689;SDS011;64303;53.118;9.044;2022-10-15T13:38:20;21.95;;;13.32;;
75689;SDS011;64303;53.118;9.044;2022-10-15T13:40:49;23.52;;;15.07;;
75689;SDS011;64303;53.118;9.044;2022-10-15T13:43:17;24.48;;;16.30;;
75689;SDS011;64303;53.118;9.044;2022-10-15T13:45:45;27.17;;;18.45;;
75689;SDS011;64303;53.118;9.044;2022-10-15T13:48:16;25.02;;;17.55;;
75689;SDS011;64303;53.118;9.044;2022-10-15T13:53:13;23.20;;;17.25;;
75689;SDS011;64303;53.118;9.044;2022-10-15T13:55:46;22.83;;;16.23;;
75689;SDS011;64303;53.118;9.044;2022-10-15T13:58:16;20.95;;;15.43;;
75689;SDS011;64303;53.118;9.044;2022-10-15T14:00:47;23.33;;;15.60;;
75689;SDS011;64303;53.118;9.044;2022-10-15T14:03:17;24.50;;;15.27;;
75689;SDS011;64303;53.118;9.044;2022-10-15T14:05:46;21.40;;;13.63;;
75689;SDS011;64303;53.118;9.044;2022-10-15T14:08:14;22.05;;;15.95;;
75689;SDS011;64303;53.118;9.044;2022-10-15T14:10:42;21.23;;;14.00;;
75689;SDS011;64303;53.118;9.044;2022-10-15T14:13:09;19.75;;;14.05;;
75689;SDS011;64303;53.118;9.044;2022-10-15T14:15:46;23.80;;;14.75;;
75689;SDS011;64303;53.118;9.044;2022-10-15T14:18:17;23.80;;;16.80;;
75689;SDS011;64303;53.118;9.044;2022-10-15T14:20:56;24.20;;;15.95;;
75689;SDS011;64303;53.118;9.044;2022-10-15T14:23:24;26.35;;;18.17;;
75689;SDS011;64303;53.118;9.044;2022-10-15T14:25:52;20.98;;;15.15;;
75689;SDS011;64303;53.118;9.044;2022-10-15T14:28:20;22.10;;;15.48;;
75689;SDS011;64303;53.118;9.044;2022-10-15T14:30:47;24.35;;;16.08;;
75689;SDS011;64303;53.118;9.044;2022-10-15T14:33:39;26.10;;;16.77;;
75689;SDS011;64303;53.118;9.044;2022-10-15T14:36:08;23.33;;;14.93;;
75689;SDS011;64303;53.118;9.044;2022-10-15T14:38:38;22.88;;;16.70;;
75689;SDS011;64303;53.118;9.044;2022-10-15T14:41:14;23.42;;;16.23;;
75689;SDS011;64303;53.118;9.044;2022-10-15T14:43:47;21.60;;;16.58;;
75689;SDS011;64303;53.118;9.044;2022-10-15T14:46:25;19.85;;;16.45;;
75689;SDS011;64303;53.118;9.044;2022-10-15T14:48:58;23.23;;;17.58;;